sensor_id;sensor_type;location;lat;lon;timestamp;temperature;humidity
16995;DHT22;8614;48.522;9.206;2023-04-30T00:01:07;11.40;99.90
16995;DHT22;8614;48.522;9.206;2023-04-30T00:03:34;11.40;99.90
16995;DHT22;8614;48.522;9.206;2023-04-30T00:06:01;11.30;99.90
16995;DHT22;8614;48.522;9.206;2023-04-30T00:08:27;11.30;99.90
16995;DHT22;8614;48.522;9.206;2023-04-30T00:10:54;11.30;99.90
16995;DHT22;8614;48.522;9.206;2023-04-30T00:13:21;11.30;99.90
16995;DHT22;8614;48.522;9.206;2023-04-30T00:15:49;11.30;99.90
16995;DHT22;8614;48.522;9.206;2023-04-30T00:18:16;11.30;99.90
16995;DHT22;8614;48.522;9.206;2023-04-30T00:20:43;11.30;99.90
16995;DHT22;8614;48.522;9.206;2023-04-30T00:23:10;11.30;99.90
16995;DHT22;8614;48.522;9.206;2023-04-30T00:25:37;11.40;99.90
16995;DHT22;8614;48.522;9.206;2023-04-30T00:28:04;11.40;99.90
16995;DHT22;8614;48.522;9.206;2023-04-30T00:30:30;11.40;99.90
16995;DHT22;8614;48.522;9.206;2023-04-30T00:32:59;11.40;99.90
16995;DHT22;8614;48.522;9.206;2023-04-30T00:35:26;11.40;99.90
16995;DHT22;8614;48.522;9.206;2023-04-30T00:37:53;11.30;99.90
16995;DHT22;8614;48.522;9.206;2023-04-30T00:40:20;11.40;99.90
16995;DHT22;8614;48.522;9.206;2023-04-30T00:42:46;11.40;99.90
16995;DHT22;8614;48.522;9.206;2023-04-30T00:45:14;11.40;99.90
16995;DHT22;8614;48.522;9.206;2023-04-30T00:47:42;11.40;99.90
16995;DHT22;8614;48.522;9.206;2023-04-30T00:50:10;11.40;99.90
16995;DHT22;8614;48.522;9.206;2023-04-30T00:52:40;11.40;99.90
16995;DHT22;8614;48.522;9.206;2023-04-30T00:55:08;11.40;99.90
16995;DHT22;8614;48.522;9.206;2023-04-30T00:57:36;11.40;99.90
16995;DHT22;8614;48.522;9.206;2023-04-30T01:00:04;11.40;99.90
16995;DHT22;8614;48.522;9.206;2023-04-30T01:02:35;11.40;99.90
16995;DHT22;8614;48.522;9.206;2023-04-30T01:05:03;11.40;99.90
16995;DHT22;8614;48.522;9.206;2023-04-30T01:07:33;11.40;99.90
16995;DHT22;8614;48.522;9.206;2023-04-30T01:10:01;11.40;99.90
16995;DHT22;8614;48.522;9.206;2023-04-30T01:12:34;11.40;99.90
16995;DHT22;8614;48.522;9.206;2023-04-30T01:15:07;11.40;99.90
16995;DHT22;8614;48.522;9.206;2023-04-30T01:17:40;11.40;99.90
16995;DHT22;8614;48.522;9.206;2023-04-30T01:20:09;11.40;99.90
16995;DHT22;8614;48.522;9.206;2023-04-30T01:22:45;11.40;99.90
16995;DHT22;8614;48.522;9.206;2023-04-30T01:25:34;11.30;99.90
16995;DHT22;8614;48.522;9.206;2023-04-30T01:28:12;11.30;99.90
16995;DHT22;8614;48.522;9.206;2023-04-30T01:30:41;11.30;99.90
16995;DHT22;8614;48.522;9.206;2023-04-30T01:33:10;11.30;99.90
16995;DHT22;8614;48.522;9.206;2023-04-30T01:35:49;11.20;99.90
16995;DHT22;8614;48.522;9.206;2023-04-30T01:38:27;11.20;99.90
16995;DHT22;8614;48.522;9.206;2023-04-30T01:41:08;11.20;99.90
16995;DHT22;8614;48.522;9.206;2023-04-30T01:43:54;11.20;99.90
16995;DHT22;8614;48.522;9.206;2023-04-30T01:46:28;11.20;99.90
16995;DHT22;8614;48.522;9.206;2023-04-30T01:49:02;11.10;99.90
16995;DHT22;8614;48.522;9.206;2023-04-30T01:51:41;11.20;99.90
16995;DHT22;8614;48.522;9.206;2023-04-30T01:54:16;11.20;99.90
16995;DHT22;8614;48.522;9.206;2023-04-30T01:56:52;11.10;99.90
16995;DHT22;8614;48.522;9.206;2023-04-30T01:59:21;11.10;99.90
16995;DHT22;8614;48.522;9.206;2023-04-30T02:01:48;11.10;99.90
16995;DHT22;8614;48.522;9.206;2023-04-30T02:04:15;11.10;99.90
16995;DHT22;8614;48.522;9.206;2023-04-30T02:06:42;11.10;99.90
16995;DHT22;8614;48.522;9.206;2023-04-30T02:09:09;11.10;99.90
16995;DHT22;8614;48.522;9.206;2023-04-30T02:11:36;11.00;99.90
16995;DHT22;8614;48.522;9.206;2023-04-30T02:14:03;11.00;99.90
16995;DHT22;8614;48.522;9.206;2023-04-30T02:16:32;11.00;99.90
16995;DHT22;8614;48.522;9.206;2023-04-30T02:18:59;11.00;99.90
16995;DHT22;8614;48.522;9.206;2023-04-30T02:21:26;11.00;99.90
16995;DHT22;8614;48.522;9.206;2023-04-30T02:23:52;11.00;99.90
16995;DHT22;8614;48.522;9.206;2023-04-30T02:26:19;10.90;99.90
16995;DHT22;8614;48.522;9.206;2023-04-30T02:28:46;10.80;99.90
16995;DHT22;8614;48.522;9.206;2023-04-30T02:31:13;10.80;99.90
16995;DHT22;8614;48.522;9.206;2023-04-30T02:33:41;10.80;99.90
16995;DHT22;8614;48.522;9.206;2023-04-30T02:36:08;10.80;99.90
16995;DHT22;8614;48.522;9.206;2023-04-30T02:38:35;10.70;99.90
16995;DHT22;8614;48.522;9.206;2023-04-30T02:41:02;10.70;99.90
16995;DHT22;8614;48.522;9.206;2023-04-30T02:43:29;10.60;99.90
16995;DHT22;8614;48.522;9.206;2023-04-30T02:45:55;10.60;99.90
16995;DHT22;8614;48.522;9.206;2023-04-30T02:48:22;10.50;99.90
16995;DHT22;8614;48.522;9.206;2023-04-30T02:50:50;10.40;99.90
16995;DHT22;8614;48.522;9.206;2023-04-30T02:53:17;10.40;99.90
16995;DHT22;8614;48.522;9.206;2023-04-30T02:55:44;10.30;99.90
16995;DHT22;8614;48.522;9.206;2023-04-30T02:58:11;10.20;99.90
16995;DHT22;8614;48.522;9.206;2023-04-30T03:00:38;10.20;99.90
16995;DHT22;8614;48.522;9.206;2023-04-30T03:03:05;10.10;99.90
16995;DHT22;8614;48.522;9.206;2023-04-30T03:05:32;10.10;99.90
16995;DHT22;8614;48.522;9.206;2023-04-30T03:08:00;10.00;99.90
16995;DHT22;8614;48.522;9.206;2023-04-30T03:10:27;9.90;99.90
16995;DHT22;8614;48.522;9.206;2023-04-30T03:12:54;9.80;99.90
16995;DHT22;8614;48.522;9.206;2023-04-30T03:15:20;9.80;99.90
16995;DHT22;8614;48.522;9.206;2023-04-30T03:17:47;9.80;99.90
16995;DHT22;8614;48.522;9.206;2023-04-30T03:20:14;9.70;99.90
16995;DHT22;8614;48.522;9.206;2023-04-30T03:22:41;9.70;99.90
16995;DHT22;8614;48.522;9.206;2023-04-30T03:25:10;9.70;99.90
16995;DHT22;8614;48.522;9.206;2023-04-30T03:27:37;9.60;99.90
16995;DHT22;8614;48.522;9.206;2023-04-30T03:30:05;9.60;99.90
16995;DHT22;8614;48.522;9.206;2023-04-30T03:32:33;9.60;99.90
16995;DHT22;8614;48.522;9.206;2023-04-30T03:35:00;9.50;99.90
16995;DHT22;8614;48.522;9.206;2023-04-30T03:37:28;9.50;99.90
16995;DHT22;8614;48.522;9.206;2023-04-30T03:39:55;9.40;99.90
16995;DHT22;8614;48.522;9.206;2023-04-30T03:42:23;9.40;99.90
16995;DHT22;8614;48.522;9.206;2023-04-30T03:44:50;9.40;99.90
16995;DHT22;8614;48.522;9.206;2023-04-30T03:47:16;9.40;99.90
16995;DHT22;8614;48.522;9.206;2023-04-30T03:49:43;9.40;99.90
16995;DHT22;8614;48.522;9.206;2023-04-30T03:52:10;9.40;99.90
16995;DHT22;8614;48.522;9.206;2023-04-30T03:54:37;9.30;99.90
16995;DHT22;8614;48.522;9.206;2023-04-30T03:57:05;9.40;99.90
16995;DHT22;8614;48.522;9.206;2023-04-30T03:59:36;9.30;99.90
16995;DHT22;8614;48.522;9.206;2023-04-30T04:02:03;9.30;99.90
16995;DHT22;8614;48.522;9.206;2023-04-30T04:04:30;9.30;99.90
16995;DHT22;8614;48.522;9.206;2023-04-30T04:06:57;9.30;99.90
16995;DHT22;8614;48.522;9.206;2023-04-30T04:09:24;9.30;99.90
16995;DHT22;8614;48.522;9.206;2023-04-30T04:11:51;9.20;99.90
16995;DHT22;8614;48.522;9.206;2023-04-30T04:14:19;9.20;99.90
16995;DHT22;8614;48.522;9.206;2023-04-30T04:16:47;9.10;99.90
16995;DHT22;8614;48.522;9.206;2023-04-30T04:19:14;9.10;99.90
16995;DHT22;8614;48.522;9.206;2023-04-30T04:21:42;9.10;99.90
16995;DHT22;8614;48.522;9.206;2023-04-30T04:24:13;9.10;99.90
16995;DHT22;8614;48.522;9.206;2023-04-30T04:26:40;9.10;99.90
16995;DHT22;8614;48.522;9.206;2023-04-30T04:29:08;9.10;99.90
16995;DHT22;8614;48.522;9.206;2023-04-30T04:31:37;9.10;99.90
16995;DHT22;8614;48.522;9.206;2023-04-30T04:34:08;9.10;99.90
16995;DHT22;8614;48.522;9.206;2023-04-30T04:36:35;9.20;99.90
16995;DHT22;8614;48.522;9.206;2023-04-30T04:39:02;9.20;99.90
16995;DHT22;8614;48.522;9.206;2023-04-30T04:41:29;9.30;99.90
16995;DHT22;8614;48.522;9.206;2023-04-30T04:43:57;9.40;99.90
16995;DHT22;8614;48.522;9.206;2023-04-30T04:46:24;9.50;99.90
16995;DHT22;8614;48.522;9.206;2023-04-30T04:48:53;9.70;99.90
16995;DHT22;8614;48.522;9.206;2023-04-30T04:51:21;9.80;99.90
16995;DHT22;8614;48.522;9.206;2023-04-30T04:53:48;9.90;99.90
16995;DHT22;8614;48.522;9.206;2023-04-30T04:56:15;10.00;99.90
16995;DHT22;8614;48.522;9.206;2023-04-30T04:58:43;10.10;99.90
16995;DHT22;8614;48.522;9.206;2023-04-30T05:01:10;10.30;99.90
16995;DHT22;8614;48.522;9.206;2023-04-30T05:03:37;10.40;99.90
16995;DHT22;8614;48.522;9.206;2023-04-30T05:06:05;10.70;99.90
16995;DHT22;8614;48.522;9.206;2023-04-30T05:08:33;11.20;99.90
16995;DHT22;8614;48.522;9.206;2023-04-30T05:11:00;11.70;99.90
16995;DHT22;8614;48.522;9.206;2023-04-30T05:13:27;12.10;99.90
16995;DHT22;8614;48.522;9.206;2023-04-30T05:15:54;12.60;99.90
16995;DHT22;8614;48.522;9.206;2023-04-30T05:18:21;13.10;99.90
16995;DHT22;8614;48.522;9.206;2023-04-30T05:20:47;13.20;99.90
16995;DHT22;8614;48.522;9.206;2023-04-30T05:23:14;13.30;99.90
16995;DHT22;8614;48.522;9.206;2023-04-30T05:25:42;13.60;99.90
16995;DHT22;8614;48.522;9.206;2023-04-30T05:28:10;13.40;99.90
16995;DHT22;8614;48.522;9.206;2023-04-30T05:30:37;13.40;99.90
16995;DHT22;8614;48.522;9.206;2023-04-30T05:33:03;13.60;99.90
16995;DHT22;8614;48.522;9.206;2023-04-30T05:35:31;13.80;99.90
16995;DHT22;8614;48.522;9.206;2023-04-30T05:38:00;13.70;99.90
16995;DHT22;8614;48.522;9.206;2023-04-30T05:40:27;13.80;99.90
16995;DHT22;8614;48.522;9.206;2023-04-30T05:42:55;14.20;99.90
16995;DHT22;8614;48.522;9.206;2023-04-30T05:45:22;14.60;99.90
16995;DHT22;8614;48.522;9.206;2023-04-30T05:47:49;14.70;99.90
16995;DHT22;8614;48.522;9.206;2023-04-30T05:50:16;14.80;99.90
16995;DHT22;8614;48.522;9.206;2023-04-30T05:52:42;14.70;99.90
16995;DHT22;8614;48.522;9.206;2023-04-30T05:55:09;14.40;99.90
16995;DHT22;8614;48.522;9.206;2023-04-30T05:57:36;14.20;99.90
16995;DHT22;8614;48.522;9.206;2023-04-30T06:00:06;14.30;99.90
16995;DHT22;8614;48.522;9.206;2023-04-30T06:02:42;14.30;99.90
16995;DHT22;8614;48.522;9.206;2023-04-30T06:05:09;14.20;99.90
16995;DHT22;8614;48.522;9.206;2023-04-30T06:07:36;14.10;99.90
16995;DHT22;8614;48.522;9.206;2023-04-30T06:10:04;14.10;99.90
16995;DHT22;8614;48.522;9.206;2023-04-30T06:12:31;14.40;99.90
16995;DHT22;8614;48.522;9.206;2023-04-30T06:14:57;14.40;99.90
16995;DHT22;8614;48.522;9.206;2023-04-30T06:17:26;14.30;99.90
16995;DHT22;8614;48.522;9.206;2023-04-30T06:19:52;14.60;99.90
16995;DHT22;8614;48.522;9.206;2023-04-30T06:22:19;14.80;99.90
16995;DHT22;8614;48.522;9.206;2023-04-30T06:24:46;14.80;99.90
16995;DHT22;8614;48.522;9.206;2023-04-30T06:27:13;14.90;99.90
16995;DHT22;8614;48.522;9.206;2023-04-30T06:29:40;14.70;99.90
16995;DHT22;8614;48.522;9.206;2023-04-30T06:32:07;14.40;99.90
16995;DHT22;8614;48.522;9.206;2023-04-30T06:34:35;14.40;99.90
16995;DHT22;8614;48.522;9.206;2023-04-30T06:37:02;14.40;99.90
16995;DHT22;8614;48.522;9.206;2023-04-30T06:39:29;14.60;99.90
16995;DHT22;8614;48.522;9.206;2023-04-30T06:41:55;14.60;99.90
16995;DHT22;8614;48.522;9.206;2023-04-30T06:44:22;14.50;99.90
16995;DHT22;8614;48.522;9.206;2023-04-30T06:46:49;14.60;99.90
16995;DHT22;8614;48.522;9.206;2023-04-30T06:49:16;14.70;99.90
16995;DHT22;8614;48.522;9.206;2023-04-30T06:51:44;14.80;99.90
16995;DHT22;8614;48.522;9.206;2023-04-30T06:54:11;14.80;99.90
16995;DHT22;8614;48.522;9.206;2023-04-30T06:56:38;14.70;99.90
16995;DHT22;8614;48.522;9.206;2023-04-30T06:59:05;14.70;99.90
16995;DHT22;8614;48.522;9.206;2023-04-30T07:01:33;14.80;99.90
16995;DHT22;8614;48.522;9.206;2023-04-30T07:04:00;14.70;99.90
16995;DHT22;8614;48.522;9.206;2023-04-30T07:06:27;14.70;99.90
16995;DHT22;8614;48.522;9.206;2023-04-30T07:08:56;14.70;99.90
16995;DHT22;8614;48.522;9.206;2023-04-30T07:11:23;14.80;99.90
16995;DHT22;8614;48.522;9.206;2023-04-30T07:13:49;15.10;99.90
16995;DHT22;8614;48.522;9.206;2023-04-30T07:16:16;15.40;99.90
16995;DHT22;8614;48.522;9.206;2023-04-30T07:18:43;15.50;99.90
16995;DHT22;8614;48.522;9.206;2023-04-30T07:21:13;15.30;99.90
16995;DHT22;8614;48.522;9.206;2023-04-30T07:23:40;15.50;99.90
16995;DHT22;8614;48.522;9.206;2023-04-30T07:26:08;15.70;99.90
16995;DHT22;8614;48.522;9.206;2023-04-30T07:28:35;15.70;99.90
16995;DHT22;8614;48.522;9.206;2023-04-30T07:31:02;15.70;99.90
16995;DHT22;8614;48.522;9.206;2023-04-30T07:33:29;15.90;99.90
16995;DHT22;8614;48.522;9.206;2023-04-30T07:35:55;15.70;99.90
16995;DHT22;8614;48.522;9.206;2023-04-30T07:38:23;15.80;99.90
16995;DHT22;8614;48.522;9.206;2023-04-30T07:40:50;15.90;99.90
16995;DHT22;8614;48.522;9.206;2023-04-30T07:43:44;16.10;99.90
16995;DHT22;8614;48.522;9.206;2023-04-30T07:46:11;16.80;99.90
16995;DHT22;8614;48.522;9.206;2023-04-30T07:48:38;16.90;99.90
16995;DHT22;8614;48.522;9.206;2023-04-30T07:51:05;17.50;99.90
16995;DHT22;8614;48.522;9.206;2023-04-30T07:53:32;17.80;99.90
16995;DHT22;8614;48.522;9.206;2023-04-30T07:55:59;17.90;99.90
16995;DHT22;8614;48.522;9.206;2023-04-30T07:58:26;18.70;99.90
16995;DHT22;8614;48.522;9.206;2023-04-30T08:00:54;18.90;99.90
16995;DHT22;8614;48.522;9.206;2023-04-30T08:03:21;19.00;99.90
16995;DHT22;8614;48.522;9.206;2023-04-30T08:05:47;19.00;99.90
16995;DHT22;8614;48.522;9.206;2023-04-30T08:08:14;19.20;99.90
16995;DHT22;8614;48.522;9.206;2023-04-30T08:10:41;19.60;99.90
16995;DHT22;8614;48.522;9.206;2023-04-30T08:13:08;19.30;99.90
16995;DHT22;8614;48.522;9.206;2023-04-30T08:15:35;19.60;99.90
16995;DHT22;8614;48.522;9.206;2023-04-30T08:18:03;19.30;99.90
16995;DHT22;8614;48.522;9.206;2023-04-30T08:20:31;19.50;99.90
16995;DHT22;8614;48.522;9.206;2023-04-30T08:22:58;19.00;99.90
16995;DHT22;8614;48.522;9.206;2023-04-30T08:25:25;18.60;99.90
16995;DHT22;8614;48.522;9.206;2023-04-30T08:27:52;18.60;99.90
16995;DHT22;8614;48.522;9.206;2023-04-30T08:30:18;18.70;99.90
16995;DHT22;8614;48.522;9.206;2023-04-30T08:32:45;18.90;99.90
16995;DHT22;8614;48.522;9.206;2023-04-30T08:35:13;18.60;99.90
16995;DHT22;8614;48.522;9.206;2023-04-30T08:37:41;18.90;99.90
16995;DHT22;8614;48.522;9.206;2023-04-30T08:40:08;18.70;99.90
16995;DHT22;8614;48.522;9.206;2023-04-30T08:42:40;18.60;99.90
16995;DHT22;8614;48.522;9.206;2023-04-30T08:45:10;18.30;99.90
16995;DHT22;8614;48.522;9.206;2023-04-30T08:47:39;17.80;99.90
16995;DHT22;8614;48.522;9.206;2023-04-30T08:50:07;17.70;99.90
16995;DHT22;8614;48.522;9.206;2023-04-30T08:52:36;17.80;99.90
16995;DHT22;8614;48.522;9.206;2023-04-30T08:55:07;17.90;99.90
16995;DHT22;8614;48.522;9.206;2023-04-30T08:57:35;17.90;99.90
16995;DHT22;8614;48.522;9.206;2023-04-30T09:00:03;17.80;99.90
16995;DHT22;8614;48.522;9.206;2023-04-30T09:02:31;18.00;99.90
16995;DHT22;8614;48.522;9.206;2023-04-30T09:04:58;18.10;99.90
16995;DHT22;8614;48.522;9.206;2023-04-30T09:07:26;18.10;99.90
16995;DHT22;8614;48.522;9.206;2023-04-30T09:09:54;18.10;99.90
16995;DHT22;8614;48.522;9.206;2023-04-30T09:12:23;18.20;99.90
16995;DHT22;8614;48.522;9.206;2023-04-30T09:15:00;17.90;99.90
16995;DHT22;8614;48.522;9.206;2023-04-30T09:17:28;17.80;99.90
16995;DHT22;8614;48.522;9.206;2023-04-30T09:20:04;18.00;99.90
16995;DHT22;8614;48.522;9.206;2023-04-30T09:22:31;17.80;99.90
16995;DHT22;8614;48.522;9.206;2023-04-30T09:25:00;17.70;99.90
16995;DHT22;8614;48.522;9.206;2023-04-30T09:27:27;17.70;99.90
16995;DHT22;8614;48.522;9.206;2023-04-30T09:29:53;17.80;99.90
16995;DHT22;8614;48.522;9.206;2023-04-30T09:32:21;17.80;99.90
16995;DHT22;8614;48.522;9.206;2023-04-30T09:34:47;17.90;99.90
16995;DHT22;8614;48.522;9.206;2023-04-30T09:37:14;17.60;99.90
16995;DHT22;8614;48.522;9.206;2023-04-30T09:39:53;17.60;99.90
16995;DHT22;8614;48.522;9.206;2023-04-30T09:42:21;17.80;99.90
16995;DHT22;8614;48.522;9.206;2023-04-30T09:44:48;17.50;99.90
16995;DHT22;8614;48.522;9.206;2023-04-30T09:47:16;17.70;99.90
16995;DHT22;8614;48.522;9.206;2023-04-30T09:49:46;17.80;99.90
16995;DHT22;8614;48.522;9.206;2023-04-30T09:52:16;17.60;99.90
16995;DHT22;8614;48.522;9.206;2023-04-30T09:54:55;17.60;99.90
16995;DHT22;8614;48.522;9.206;2023-04-30T09:57:29;17.60;99.90
16995;DHT22;8614;48.522;9.206;2023-04-30T10:00:01;17.70;99.90
16995;DHT22;8614;48.522;9.206;2023-04-30T10:02:35;17.80;99.90
16995;DHT22;8614;48.522;9.206;2023-04-30T10:05:03;17.90;99.90
16995;DHT22;8614;48.522;9.206;2023-04-30T10:07:35;17.90;99.90
16995;DHT22;8614;48.522;9.206;2023-04-30T10:10:07;17.90;99.90
16995;DHT22;8614;48.522;9.206;2023-04-30T10:12:41;17.90;99.90
16995;DHT22;8614;48.522;9.206;2023-04-30T10:15:14;17.80;99.90
16995;DHT22;8614;48.522;9.206;2023-04-30T10:17:44;17.60;99.90
16995;DHT22;8614;48.522;9.206;2023-04-30T10:20:14;17.40;99.90
16995;DHT22;8614;48.522;9.206;2023-04-30T10:22:42;17.20;99.90
16995;DHT22;8614;48.522;9.206;2023-04-30T10:25:10;17.30;99.90
16995;DHT22;8614;48.522;9.206;2023-04-30T10:27:39;17.50;99.90
16995;DHT22;8614;48.522;9.206;2023-04-30T10:30:10;17.30;99.90
16995;DHT22;8614;48.522;9.206;2023-04-30T10:32:40;17.30;99.90
16995;DHT22;8614;48.522;9.206;2023-04-30T10:35:15;17.50;99.90
16995;DHT22;8614;48.522;9.206;2023-04-30T10:37:46;17.80;99.90
16995;DHT22;8614;48.522;9.206;2023-04-30T10:40:15;17.90;99.90
16995;DHT22;8614;48.522;9.206;2023-04-30T10:42:47;17.80;99.90
16995;DHT22;8614;48.522;9.206;2023-04-30T10:45:15;17.90;99.90
16995;DHT22;8614;48.522;9.206;2023-04-30T10:47:42;18.20;99.90
16995;DHT22;8614;48.522;9.206;2023-04-30T10:50:10;18.20;99.90
16995;DHT22;8614;48.522;9.206;2023-04-30T10:52:37;18.30;99.90
16995;DHT22;8614;48.522;9.206;2023-04-30T10:55:06;18.20;99.90
16995;DHT22;8614;48.522;9.206;2023-04-30T10:57:39;17.90;99.90
16995;DHT22;8614;48.522;9.206;2023-04-30T11:00:25;17.70;99.90
16995;DHT22;8614;48.522;9.206;2023-04-30T11:02:56;17.80;99.90
16995;DHT22;8614;48.522;9.206;2023-04-30T11:05:36;17.50;99.90
16995;DHT22;8614;48.522;9.206;2023-04-30T11:08:03;17.40;99.90
16995;DHT22;8614;48.522;9.206;2023-04-30T11:10:32;17.30;99.90
16995;DHT22;8614;48.522;9.206;2023-04-30T11:13:03;17.10;99.90
16995;DHT22;8614;48.522;9.206;2023-04-30T11:15:33;17.20;99.90
16995;DHT22;8614;48.522;9.206;2023-04-30T11:18:01;17.40;99.90
16995;DHT22;8614;48.522;9.206;2023-04-30T11:20:28;17.50;99.90
16995;DHT22;8614;48.522;9.206;2023-04-30T11:23:07;17.40;99.90
16995;DHT22;8614;48.522;9.206;2023-04-30T11:25:39;17.40;99.90
16995;DHT22;8614;48.522;9.206;2023-04-30T11:28:06;17.40;99.90
16995;DHT22;8614;48.522;9.206;2023-04-30T11:30:35;17.40;99.90
16995;DHT22;8614;48.522;9.206;2023-04-30T11:33:02;17.60;99.90
16995;DHT22;8614;48.522;9.206;2023-04-30T11:35:31;17.70;99.90
16995;DHT22;8614;48.522;9.206;2023-04-30T11:37:58;17.80;99.90
16995;DHT22;8614;48.522;9.206;2023-04-30T11:40:26;18.00;99.90
16995;DHT22;8614;48.522;9.206;2023-04-30T11:50:10;17.90;99.90
16995;DHT22;8614;48.522;9.206;2023-04-30T11:52:37;18.00;99.90
16995;DHT22;8614;48.522;9.206;2023-04-30T11:55:08;17.80;99.90
16995;DHT22;8614;48.522;9.206;2023-04-30T11:57:41;17.90;99.90
16995;DHT22;8614;48.522;9.206;2023-04-30T12:00:13;17.90;99.90
16995;DHT22;8614;48.522;9.206;2023-04-30T12:02:41;17.90;99.90
16995;DHT22;8614;48.522;9.206;2023-04-30T12:05:15;17.80;99.90
16995;DHT22;8614;48.522;9.206;2023-04-30T12:07:49;17.90;99.90
16995;DHT22;8614;48.522;9.206;2023-04-30T12:10:18;17.70;99.90
16995;DHT22;8614;48.522;9.206;2023-04-30T12:12:46;17.80;99.90
16995;DHT22;8614;48.522;9.206;2023-04-30T12:15:15;18.00;99.90
16995;DHT22;8614;48.522;9.206;2023-04-30T12:17:42;18.10;99.90
16995;DHT22;8614;48.522;9.206;2023-04-30T12:20:11;18.40;99.90
16995;DHT22;8614;48.522;9.206;2023-04-30T12:22:39;18.20;99.90
16995;DHT22;8614;48.522;9.206;2023-04-30T12:25:08;18.20;99.90
16995;DHT22;8614;48.522;9.206;2023-04-30T12:27:39;18.50;99.90
16995;DHT22;8614;48.522;9.206;2023-04-30T12:30:06;18.70;99.90
16995;DHT22;8614;48.522;9.206;2023-04-30T12:32:41;18.80;99.90
16995;DHT22;8614;48.522;9.206;2023-04-30T12:35:13;18.60;99.90
16995;DHT22;8614;48.522;9.206;2023-04-30T12:37:42;18.40;99.90
16995;DHT22;8614;48.522;9.206;2023-04-30T12:40:11;18.30;99.90
16995;DHT22;8614;48.522;9.206;2023-04-30T12:42:39;18.60;99.90
16995;DHT22;8614;48.522;9.206;2023-04-30T12:45:07;19.10;99.90
16995;DHT22;8614;48.522;9.206;2023-04-30T12:47:37;19.30;99.90
16995;DHT22;8614;48.522;9.206;2023-04-30T12:50:08;19.40;99.90
16995;DHT22;8614;48.522;9.206;2023-04-30T12:52:36;19.60;99.90
16995;DHT22;8614;48.522;9.206;2023-04-30T12:55:17;19.00;99.90
16995;DHT22;8614;48.522;9.206;2023-04-30T12:58:06;18.80;99.90
16995;DHT22;8614;48.522;9.206;2023-04-30T13:00:43;18.60;99.90
16995;DHT22;8614;48.522;9.206;2023-04-30T13:03:11;18.80;99.90
16995;DHT22;8614;48.522;9.206;2023-04-30T13:05:38;19.00;99.90
16995;DHT22;8614;48.522;9.206;2023-04-30T13:08:05;19.10;99.90
16995;DHT22;8614;48.522;9.206;2023-04-30T13:10:35;18.60;99.90
16995;DHT22;8614;48.522;9.206;2023-04-30T13:13:01;18.70;99.90
16995;DHT22;8614;48.522;9.206;2023-04-30T13:15:28;19.00;99.90
16995;DHT22;8614;48.522;9.206;2023-04-30T13:17:55;19.00;99.90
16995;DHT22;8614;48.522;9.206;2023-04-30T13:20:22;18.90;99.90
16995;DHT22;8614;48.522;9.206;2023-04-30T13:22:51;18.70;99.90
16995;DHT22;8614;48.522;9.206;2023-04-30T13:26:24;18.50;99.90
16995;DHT22;8614;48.522;9.206;2023-04-30T13:28:55;18.30;99.90
16995;DHT22;8614;48.522;9.206;2023-04-30T13:31:22;18.20;99.90
16995;DHT22;8614;48.522;9.206;2023-04-30T13:33:48;18.10;99.90
16995;DHT22;8614;48.522;9.206;2023-04-30T13:36:16;18.20;99.90
16995;DHT22;8614;48.522;9.206;2023-04-30T13:41:52;18.30;99.90
16995;DHT22;8614;48.522;9.206;2023-04-30T13:44:19;18.30;99.90
16995;DHT22;8614;48.522;9.206;2023-04-30T13:46:46;18.20;99.90
16995;DHT22;8614;48.522;9.206;2023-04-30T13:49:13;18.20;99.90
16995;DHT22;8614;48.522;9.206;2023-04-30T13:51:40;18.30;99.90
16995;DHT22;8614;48.522;9.206;2023-04-30T13:54:07;18.30;99.90
16995;DHT22;8614;48.522;9.206;2023-04-30T13:56:37;18.10;99.90
16995;DHT22;8614;48.522;9.206;2023-04-30T13:59:05;18.10;99.90
16995;DHT22;8614;48.522;9.206;2023-04-30T14:01:32;17.90;99.90
16995;DHT22;8614;48.522;9.206;2023-04-30T14:03:58;17.80;99.90
16995;DHT22;8614;48.522;9.206;2023-04-30T14:06:26;17.90;99.90
16995;DHT22;8614;48.522;9.206;2023-04-30T14:08:53;17.90;99.90
16995;DHT22;8614;48.522;9.206;2023-04-30T14:11:20;17.70;99.90
16995;DHT22;8614;48.522;9.206;2023-04-30T14:13:47;17.90;99.90
16995;DHT22;8614;48.522;9.206;2023-04-30T14:16:15;17.80;99.90
16995;DHT22;8614;48.522;9.206;2023-04-30T14:18:44;18.00;99.90
16995;DHT22;8614;48.522;9.206;2023-04-30T14:21:10;18.10;99.90
16995;DHT22;8614;48.522;9.206;2023-04-30T14:23:37;18.30;99.90
16995;DHT22;8614;48.522;9.206;2023-04-30T14:26:05;18.10;99.90
16995;DHT22;8614;48.522;9.206;2023-04-30T14:28:32;18.10;99.90
16995;DHT22;8614;48.522;9.206;2023-04-30T14:30:59;18.10;99.90
16995;DHT22;8614;48.522;9.206;2023-04-30T14:33:27;18.00;99.90
16995;DHT22;8614;48.522;9.206;2023-04-30T14:35:54;18.00;99.90
16995;DHT22;8614;48.522;9.206;2023-04-30T14:38:21;18.00;99.90
16995;DHT22;8614;48.522;9.206;2023-04-30T14:40:48;18.10;99.90
16995;DHT22;8614;48.522;9.206;2023-04-30T14:43:14;18.10;99.90
16995;DHT22;8614;48.522;9.206;2023-04-30T14:45:41;18.10;99.90
16995;DHT22;8614;48.522;9.206;2023-04-30T14:48:09;18.10;99.90
16995;DHT22;8614;48.522;9.206;2023-04-30T14:50:37;18.20;99.90
16995;DHT22;8614;48.522;9.206;2023-04-30T14:53:05;18.20;99.90
16995;DHT22;8614;48.522;9.206;2023-04-30T14:55:32;18.10;99.90
16995;DHT22;8614;48.522;9.206;2023-04-30T14:57:59;18.20;99.90
16995;DHT22;8614;48.522;9.206;2023-04-30T15:00:26;18.10;99.90
16995;DHT22;8614;48.522;9.206;2023-04-30T15:02:53;18.10;99.90
16995;DHT22;8614;48.522;9.206;2023-04-30T15:05:20;18.10;99.90
16995;DHT22;8614;48.522;9.206;2023-04-30T15:07:48;18.10;99.90
16995;DHT22;8614;48.522;9.206;2023-04-30T15:10:15;18.20;99.90
16995;DHT22;8614;48.522;9.206;2023-04-30T15:12:42;18.20;99.90
16995;DHT22;8614;48.522;9.206;2023-04-30T15:15:09;18.10;99.90
16995;DHT22;8614;48.522;9.206;2023-04-30T15:17:36;18.00;99.90
16995;DHT22;8614;48.522;9.206;2023-04-30T15:20:04;18.00;99.90
16995;DHT22;8614;48.522;9.206;2023-04-30T15:22:31;18.00;99.90
16995;DHT22;8614;48.522;9.206;2023-04-30T15:25:00;18.10;99.90
16995;DHT22;8614;48.522;9.206;2023-04-30T15:27:27;18.10;99.90
16995;DHT22;8614;48.522;9.206;2023-04-30T15:29:54;17.90;99.90
16995;DHT22;8614;48.522;9.206;2023-04-30T15:32:21;17.90;99.90
16995;DHT22;8614;48.522;9.206;2023-04-30T15:34:48;17.90;99.90
16995;DHT22;8614;48.522;9.206;2023-04-30T15:37:14;17.60;99.90
16995;DHT22;8614;48.522;9.206;2023-04-30T15:39:41;17.60;99.90
16995;DHT22;8614;48.522;9.206;2023-04-30T15:42:09;17.60;99.90
16995;DHT22;8614;48.522;9.206;2023-04-30T15:44:36;17.60;99.90
16995;DHT22;8614;48.522;9.206;2023-04-30T15:47:03;17.60;99.90
16995;DHT22;8614;48.522;9.206;2023-04-30T15:49:30;17.60;99.90
16995;DHT22;8614;48.522;9.206;2023-04-30T15:51:57;17.60;99.90
16995;DHT22;8614;48.522;9.206;2023-04-30T15:54:24;17.60;99.90
16995;DHT22;8614;48.522;9.206;2023-04-30T15:56:50;17.40;99.90
16995;DHT22;8614;48.522;9.206;2023-04-30T15:59:19;17.50;99.90
16995;DHT22;8614;48.522;9.206;2023-04-30T16:01:45;17.50;99.90
16995;DHT22;8614;48.522;9.206;2023-04-30T16:04:12;17.40;99.90
16995;DHT22;8614;48.522;9.206;2023-04-30T16:06:39;17.30;99.90